CheckWX is a tool to help pilots better visualize weather data.  It is not intended as a substitute for an official pre-flight weather briefing.

02:36:55 UTC

C62 METAR
Kendallville Municipal Airport
Kendallville, Indiana, USA
Current

22 mins ago

KC62 190215Z AUTO 10005KT 10SM CLR 18/13 A3016 RMK AO2 T01830140
Observed
Sep-19 @ 02:15 UTC
Wind
  • 100° at 5 KTS
Visibility
10 SM
Flight Rules
VFR
Cloud Levels
  • Clear skies
Temperature
18°C / 64°F
Dewpoint
14°C / 57°F
Humidity
78%
Altimeter
30.16" Hg
Pressure
1021.32 hPa
Previous

42 mins ago

KC62 190155Z AUTO 09006KT 10SM CLR 18/13 A3016 RMK AO2 T01850140
Observed
Sep-19 @ 01:55 UTC
Wind
  • 090° at 6 KTS
Visibility
10 SM
Flight Rules
VFR
Cloud Levels
  • Clear skies
Temperature
19°C / 66°F
Dewpoint
14°C / 57°F
Humidity
73%
Altimeter
30.16" Hg
Pressure
1021.32 hPa
Previous

1 hour ago

KC62 190135Z AUTO 09006KT 10SM CLR 18/13 A3016 RMK AO2 T01880136
Observed
Sep-19 @ 01:35 UTC
Wind
  • 090° at 6 KTS
Visibility
10 SM
Flight Rules
VFR
Cloud Levels
  • Clear skies
Temperature
19°C / 66°F
Dewpoint
14°C / 57°F
Humidity
73%
Altimeter
30.16" Hg
Pressure
1021.32 hPa